sensor_id;sensor_type;location;lat;lon;timestamp;temperature;humidity
85333;DHT22;75747;53.652;10.168;2024-03-08T00:00:27;0.80;100.00
85333;DHT22;75747;53.652;10.168;2024-03-08T00:02:53;0.80;100.00
85333;DHT22;75747;53.652;10.168;2024-03-08T00:05:19;0.80;100.00
85333;DHT22;75747;53.652;10.168;2024-03-08T00:07:45;0.80;100.00
85333;DHT22;75747;53.652;10.168;2024-03-08T00:10:12;0.70;100.00
85333;DHT22;75747;53.652;10.168;2024-03-08T00:12:42;0.80;100.00
85333;DHT22;75747;53.652;10.168;2024-03-08T00:15:09;0.70;100.00
85333;DHT22;75747;53.652;10.168;2024-03-08T00:17:36;0.70;100.00
85333;DHT22;75747;53.652;10.168;2024-03-08T00:20:03;0.70;100.00
85333;DHT22;75747;53.652;10.168;2024-03-08T00:22:36;0.70;100.00
85333;DHT22;75747;53.652;10.168;2024-03-08T00:25:02;0.70;100.00
85333;DHT22;75747;53.652;10.168;2024-03-08T00:27:28;0.60;100.00
85333;DHT22;75747;53.652;10.168;2024-03-08T00:29:56;0.60;100.00
85333;DHT22;75747;53.652;10.168;2024-03-08T00:32:21;0.60;100.00
85333;DHT22;75747;53.652;10.168;2024-03-08T00:34:49;0.60;100.00
85333;DHT22;75747;53.652;10.168;2024-03-08T00:37:17;0.60;100.00
85333;DHT22;75747;53.652;10.168;2024-03-08T00:39:43;0.60;100.00
85333;DHT22;75747;53.652;10.168;2024-03-08T00:42:09;0.50;100.00
85333;DHT22;75747;53.652;10.168;2024-03-08T00:44:34;0.50;100.00
85333;DHT22;75747;53.652;10.168;2024-03-08T00:47:00;0.40;100.00
85333;DHT22;75747;53.652;10.168;2024-03-08T00:49:25;0.50;100.00
85333;DHT22;75747;53.652;10.168;2024-03-08T00:51:51;0.50;100.00
85333;DHT22;75747;53.652;10.168;2024-03-08T00:54:17;0.40;100.00
85333;DHT22;75747;53.652;10.168;2024-03-08T00:56:42;0.40;100.00
85333;DHT22;75747;53.652;10.168;2024-03-08T00:59:08;0.30;100.00
85333;DHT22;75747;53.652;10.168;2024-03-08T01:01:33;0.20;100.00
85333;DHT22;75747;53.652;10.168;2024-03-08T01:03:59;0.20;100.00
85333;DHT22;75747;53.652;10.168;2024-03-08T01:06:25;0.30;100.00
85333;DHT22;75747;53.652;10.168;2024-03-08T01:08:50;0.20;100.00
85333;DHT22;75747;53.652;10.168;2024-03-08T01:11:18;0.10;100.00
85333;DHT22;75747;53.652;10.168;2024-03-08T01:13:44;0.10;100.00
85333;DHT22;75747;53.652;10.168;2024-03-08T01:16:13;0.10;100.00
85333;DHT22;75747;53.652;10.168;2024-03-08T01:18:38;0.00;100.00
85333;DHT22;75747;53.652;10.168;2024-03-08T01:21:04;0.00;100.00
85333;DHT22;75747;53.652;10.168;2024-03-08T01:23:30;0.10;100.00
85333;DHT22;75747;53.652;10.168;2024-03-08T01:25:55;0.10;100.00
85333;DHT22;75747;53.652;10.168;2024-03-08T01:28:25;0.10;100.00
85333;DHT22;75747;53.652;10.168;2024-03-08T01:30:50;0.10;100.00
85333;DHT22;75747;53.652;10.168;2024-03-08T01:33:22;0.00;100.00
85333;DHT22;75747;53.652;10.168;2024-03-08T01:35:48;0.00;100.00
85333;DHT22;75747;53.652;10.168;2024-03-08T01:38:13;0.00;100.00
85333;DHT22;75747;53.652;10.168;2024-03-08T01:40:39;0.00;100.00
85333;DHT22;75747;53.652;10.168;2024-03-08T01:43:19;0.00;100.00
85333;DHT22;75747;53.652;10.168;2024-03-08T01:45:45;0.00;100.00
85333;DHT22;75747;53.652;10.168;2024-03-08T01:48:11;0.00;100.00
85333;DHT22;75747;53.652;10.168;2024-03-08T01:50:38;0.00;100.00
85333;DHT22;75747;53.652;10.168;2024-03-08T01:53:05;0.00;100.00
85333;DHT22;75747;53.652;10.168;2024-03-08T01:55:32;0.00;100.00
85333;DHT22;75747;53.652;10.168;2024-03-08T01:57:59;0.00;100.00
85333;DHT22;75747;53.652;10.168;2024-03-08T02:00:25;0.00;100.00
85333;DHT22;75747;53.652;10.168;2024-03-08T02:02:54;0.00;100.00
85333;DHT22;75747;53.652;10.168;2024-03-08T02:05:20;-0.10;100.00
85333;DHT22;75747;53.652;10.168;2024-03-08T02:07:46;-0.10;100.00
85333;DHT22;75747;53.652;10.168;2024-03-08T02:10:12;-0.10;100.00
85333;DHT22;75747;53.652;10.168;2024-03-08T02:12:38;-0.10;100.00
85333;DHT22;75747;53.652;10.168;2024-03-08T02:15:04;-0.10;100.00
85333;DHT22;75747;53.652;10.168;2024-03-08T02:17:32;-0.10;100.00
85333;DHT22;75747;53.652;10.168;2024-03-08T02:20:02;-0.10;100.00
85333;DHT22;75747;53.652;10.168;2024-03-08T02:22:30;-0.20;100.00
85333;DHT22;75747;53.652;10.168;2024-03-08T02:24:56;-0.10;100.00
85333;DHT22;75747;53.652;10.168;2024-03-08T02:27:25;-0.20;100.00
85333;DHT22;75747;53.652;10.168;2024-03-08T02:29:54;-0.30;100.00
85333;DHT22;75747;53.652;10.168;2024-03-08T02:32:24;-0.30;100.00
85333;DHT22;75747;53.652;10.168;2024-03-08T02:34:50;-0.40;100.00
85333;DHT22;75747;53.652;10.168;2024-03-08T02:37:16;-0.40;100.00
85333;DHT22;75747;53.652;10.168;2024-03-08T02:39:43;-0.40;100.00
85333;DHT22;75747;53.652;10.168;2024-03-08T02:42:08;-0.50;100.00
85333;DHT22;75747;53.652;10.168;2024-03-08T02:44:34;-0.50;100.00
85333;DHT22;75747;53.652;10.168;2024-03-08T02:47:00;-0.50;100.00
85333;DHT22;75747;53.652;10.168;2024-03-08T02:49:29;-0.60;100.00
85333;DHT22;75747;53.652;10.168;2024-03-08T02:51:54;-0.60;100.00
85333;DHT22;75747;53.652;10.168;2024-03-08T02:54:22;-0.50;100.00
85333;DHT22;75747;53.652;10.168;2024-03-08T02:56:49;-0.50;100.00
85333;DHT22;75747;53.652;10.168;2024-03-08T02:59:17;-0.60;100.00
85333;DHT22;75747;53.652;10.168;2024-03-08T03:01:44;-0.60;100.00
85333;DHT22;75747;53.652;10.168;2024-03-08T03:04:09;-0.60;100.00
85333;DHT22;75747;53.652;10.168;2024-03-08T03:06:35;-0.50;100.00
85333;DHT22;75747;53.652;10.168;2024-03-08T03:09:01;-0.60;100.00
85333;DHT22;75747;53.652;10.168;2024-03-08T03:11:27;-0.70;100.00
85333;DHT22;75747;53.652;10.168;2024-03-08T03:13:53;-0.70;100.00
85333;DHT22;75747;53.652;10.168;2024-03-08T03:16:21;-0.70;100.00
85333;DHT22;75747;53.652;10.168;2024-03-08T03:18:47;-0.60;100.00
85333;DHT22;75747;53.652;10.168;2024-03-08T03:21:13;-0.60;100.00
85333;DHT22;75747;53.652;10.168;2024-03-08T03:23:39;-0.70;100.00
85333;DHT22;75747;53.652;10.168;2024-03-08T03:26:10;-0.70;100.00
85333;DHT22;75747;53.652;10.168;2024-03-08T03:28:37;-0.70;100.00
85333;DHT22;75747;53.652;10.168;2024-03-08T03:31:06;-0.80;100.00
85333;DHT22;75747;53.652;10.168;2024-03-08T03:33:32;-0.90;100.00
85333;DHT22;75747;53.652;10.168;2024-03-08T03:35:59;-0.90;100.00
85333;DHT22;75747;53.652;10.168;2024-03-08T03:38:26;-0.80;100.00
85333;DHT22;75747;53.652;10.168;2024-03-08T03:40:53;-0.80;100.00
85333;DHT22;75747;53.652;10.168;2024-03-08T03:43:25;-0.90;100.00
85333;DHT22;75747;53.652;10.168;2024-03-08T03:45:51;-0.80;100.00
85333;DHT22;75747;53.652;10.168;2024-03-08T03:48:16;-0.80;100.00
85333;DHT22;75747;53.652;10.168;2024-03-08T03:50:42;-0.90;100.00
85333;DHT22;75747;53.652;10.168;2024-03-08T03:53:08;-0.90;100.00
85333;DHT22;75747;53.652;10.168;2024-03-08T03:55:34;-1.00;100.00
85333;DHT22;75747;53.652;10.168;2024-03-08T03:58:02;-0.90;100.00
85333;DHT22;75747;53.652;10.168;2024-03-08T04:00:28;-1.00;100.00
85333;DHT22;75747;53.652;10.168;2024-03-08T04:02:54;-0.90;100.00
85333;DHT22;75747;53.652;10.168;2024-03-08T04:05:20;-0.90;100.00
85333;DHT22;75747;53.652;10.168;2024-03-08T04:07:46;-0.90;100.00
85333;DHT22;75747;53.652;10.168;2024-03-08T04:10:12;-0.90;100.00
85333;DHT22;75747;53.652;10.168;2024-03-08T04:12:37;-0.90;100.00
85333;DHT22;75747;53.652;10.168;2024-03-08T04:15:05;-0.90;100.00
85333;DHT22;75747;53.652;10.168;2024-03-08T04:17:36;-0.80;100.00
85333;DHT22;75747;53.652;10.168;2024-03-08T04:20:03;-0.80;100.00
85333;DHT22;75747;53.652;10.168;2024-03-08T04:22:35;-0.90;100.00
85333;DHT22;75747;53.652;10.168;2024-03-08T04:25:02;-0.80;100.00
85333;DHT22;75747;53.652;10.168;2024-03-08T04:27:27;-0.80;100.00
85333;DHT22;75747;53.652;10.168;2024-03-08T04:29:53;-0.90;100.00
85333;DHT22;75747;53.652;10.168;2024-03-08T04:32:18;-0.90;100.00
85333;DHT22;75747;53.652;10.168;2024-03-08T04:34:44;-0.90;100.00
85333;DHT22;75747;53.652;10.168;2024-03-08T04:37:10;-0.90;100.00
85333;DHT22;75747;53.652;10.168;2024-03-08T04:39:38;-0.90;100.00
85333;DHT22;75747;53.652;10.168;2024-03-08T04:42:05;-0.90;100.00
85333;DHT22;75747;53.652;10.168;2024-03-08T04:44:35;-0.90;100.00
85333;DHT22;75747;53.652;10.168;2024-03-08T04:47:02;-0.90;100.00
85333;DHT22;75747;53.652;10.168;2024-03-08T04:49:27;-0.90;100.00
85333;DHT22;75747;53.652;10.168;2024-03-08T04:51:53;-1.00;100.00
85333;DHT22;75747;53.652;10.168;2024-03-08T04:54:19;-0.90;100.00
85333;DHT22;75747;53.652;10.168;2024-03-08T04:56:45;-0.90;100.00
85333;DHT22;75747;53.652;10.168;2024-03-08T04:59:10;-1.00;100.00
85333;DHT22;75747;53.652;10.168;2024-03-08T05:01:36;-1.00;100.00
85333;DHT22;75747;53.652;10.168;2024-03-08T05:04:04;-1.00;100.00
85333;DHT22;75747;53.652;10.168;2024-03-08T05:06:31;-1.00;100.00
85333;DHT22;75747;53.652;10.168;2024-03-08T05:08:56;-1.00;100.00
85333;DHT22;75747;53.652;10.168;2024-03-08T05:11:22;-1.00;100.00
85333;DHT22;75747;53.652;10.168;2024-03-08T05:13:48;-1.00;100.00
85333;DHT22;75747;53.652;10.168;2024-03-08T05:16:13;-1.10;100.00
85333;DHT22;75747;53.652;10.168;2024-03-08T05:18:41;-1.00;100.00
85333;DHT22;75747;53.652;10.168;2024-03-08T05:21:07;-1.10;100.00
85333;DHT22;75747;53.652;10.168;2024-03-08T05:23:34;-1.10;100.00
85333;DHT22;75747;53.652;10.168;2024-03-08T05:26:00;-1.10;100.00
85333;DHT22;75747;53.652;10.168;2024-03-08T05:28:26;-1.10;100.00
85333;DHT22;75747;53.652;10.168;2024-03-08T05:30:52;-1.10;100.00
85333;DHT22;75747;53.652;10.168;2024-03-08T05:33:17;-1.10;100.00
85333;DHT22;75747;53.652;10.168;2024-03-08T05:35:44;-1.10;100.00
85333;DHT22;75747;53.652;10.168;2024-03-08T05:38:10;-1.10;100.00
85333;DHT22;75747;53.652;10.168;2024-03-08T05:40:38;-1.10;100.00
85333;DHT22;75747;53.652;10.168;2024-03-08T05:43:04;-1.10;100.00
85333;DHT22;75747;53.652;10.168;2024-03-08T05:45:30;-1.10;100.00
85333;DHT22;75747;53.652;10.168;2024-03-08T05:47:56;-1.10;100.00
85333;DHT22;75747;53.652;10.168;2024-03-08T05:50:22;-1.10;100.00
85333;DHT22;75747;53.652;10.168;2024-03-08T05:52:47;-1.10;100.00
85333;DHT22;75747;53.652;10.168;2024-03-08T05:55:13;-1.20;100.00
85333;DHT22;75747;53.652;10.168;2024-03-08T05:57:40;-1.10;100.00
85333;DHT22;75747;53.652;10.168;2024-03-08T06:00:08;-1.10;100.00
85333;DHT22;75747;53.652;10.168;2024-03-08T06:02:37;-1.10;100.00
85333;DHT22;75747;53.652;10.168;2024-03-08T06:05:08;-1.10;100.00
85333;DHT22;75747;53.652;10.168;2024-03-08T06:07:33;-1.20;100.00
85333;DHT22;75747;53.652;10.168;2024-03-08T06:09:59;-1.10;100.00
85333;DHT22;75747;53.652;10.168;2024-03-08T06:12:25;-1.10;100.00
85333;DHT22;75747;53.652;10.168;2024-03-08T06:14:54;-1.10;100.00
85333;DHT22;75747;53.652;10.168;2024-03-08T06:17:20;-1.10;100.00
85333;DHT22;75747;53.652;10.168;2024-03-08T06:19:45;-1.10;100.00
85333;DHT22;75747;53.652;10.168;2024-03-08T06:22:13;-1.10;100.00
85333;DHT22;75747;53.652;10.168;2024-03-08T06:24:40;-1.00;100.00
85333;DHT22;75747;53.652;10.168;2024-03-08T06:27:06;-1.00;100.00
85333;DHT22;75747;53.652;10.168;2024-03-08T06:29:31;-1.10;100.00
85333;DHT22;75747;53.652;10.168;2024-03-08T06:31:57;-1.00;100.00
85333;DHT22;75747;53.652;10.168;2024-03-08T06:34:23;-1.00;100.00
85333;DHT22;75747;53.652;10.168;2024-03-08T06:36:49;-1.00;100.00
85333;DHT22;75747;53.652;10.168;2024-03-08T06:39:14;-1.00;100.00
85333;DHT22;75747;53.652;10.168;2024-03-08T06:41:40;-1.00;100.00
85333;DHT22;75747;53.652;10.168;2024-03-08T06:44:06;-1.00;100.00
85333;DHT22;75747;53.652;10.168;2024-03-08T06:46:33;-1.00;100.00
85333;DHT22;75747;53.652;10.168;2024-03-08T06:48:59;-0.90;100.00
85333;DHT22;75747;53.652;10.168;2024-03-08T06:51:26;-0.90;100.00
85333;DHT22;75747;53.652;10.168;2024-03-08T06:53:51;-0.80;100.00
85333;DHT22;75747;53.652;10.168;2024-03-08T06:56:20;-0.80;100.00
85333;DHT22;75747;53.652;10.168;2024-03-08T06:58:46;-0.80;100.00
85333;DHT22;75747;53.652;10.168;2024-03-08T07:01:13;-0.80;100.00
85333;DHT22;75747;53.652;10.168;2024-03-08T07:03:41;-0.80;100.00
85333;DHT22;75747;53.652;10.168;2024-03-08T07:06:12;-0.80;100.00
85333;DHT22;75747;53.652;10.168;2024-03-08T07:08:39;-0.70;100.00
85333;DHT22;75747;53.652;10.168;2024-03-08T07:11:05;-0.70;100.00
85333;DHT22;75747;53.652;10.168;2024-03-08T07:13:31;-0.70;100.00
85333;DHT22;75747;53.652;10.168;2024-03-08T07:15:57;-0.60;100.00
85333;DHT22;75747;53.652;10.168;2024-03-08T07:18:25;-0.60;100.00
85333;DHT22;75747;53.652;10.168;2024-03-08T07:20:51;-0.50;100.00
85333;DHT22;75747;53.652;10.168;2024-03-08T07:23:17;-0.50;100.00
85333;DHT22;75747;53.652;10.168;2024-03-08T07:26:02;-0.40;100.00
85333;DHT22;75747;53.652;10.168;2024-03-08T07:28:28;-0.30;100.00
85333;DHT22;75747;53.652;10.168;2024-03-08T07:30:56;-0.10;100.00
85333;DHT22;75747;53.652;10.168;2024-03-08T07:33:48;0.00;100.00
85333;DHT22;75747;53.652;10.168;2024-03-08T07:36:16;0.10;100.00
85333;DHT22;75747;53.652;10.168;2024-03-08T07:38:41;0.30;100.00
85333;DHT22;75747;53.652;10.168;2024-03-08T07:41:07;0.40;100.00
85333;DHT22;75747;53.652;10.168;2024-03-08T07:43:32;0.50;100.00
85333;DHT22;75747;53.652;10.168;2024-03-08T07:45:58;0.60;100.00
85333;DHT22;75747;53.652;10.168;2024-03-08T07:48:24;0.60;100.00
85333;DHT22;75747;53.652;10.168;2024-03-08T07:50:49;0.70;100.00
85333;DHT22;75747;53.652;10.168;2024-03-08T07:53:15;0.60;100.00
85333;DHT22;75747;53.652;10.168;2024-03-08T07:55:41;0.50;100.00
85333;DHT22;75747;53.652;10.168;2024-03-08T07:58:08;0.50;100.00
85333;DHT22;75747;53.652;10.168;2024-03-08T08:00:36;0.50;100.00
85333;DHT22;75747;53.652;10.168;2024-03-08T08:03:03;0.50;100.00
85333;DHT22;75747;53.652;10.168;2024-03-08T08:05:28;0.60;100.00
85333;DHT22;75747;53.652;10.168;2024-03-08T08:07:54;0.60;100.00
85333;DHT22;75747;53.652;10.168;2024-03-08T08:10:20;0.60;100.00
85333;DHT22;75747;53.652;10.168;2024-03-08T08:12:50;0.60;100.00
85333;DHT22;75747;53.652;10.168;2024-03-08T08:15:19;0.60;100.00
85333;DHT22;75747;53.652;10.168;2024-03-08T08:17:45;0.70;100.00
85333;DHT22;75747;53.652;10.168;2024-03-08T08:20:12;0.70;100.00
85333;DHT22;75747;53.652;10.168;2024-03-08T08:22:43;0.80;100.00
85333;DHT22;75747;53.652;10.168;2024-03-08T08:25:09;0.80;100.00
85333;DHT22;75747;53.652;10.168;2024-03-08T08:27:36;0.90;100.00
85333;DHT22;75747;53.652;10.168;2024-03-08T08:30:03;1.00;100.00
85333;DHT22;75747;53.652;10.168;2024-03-08T08:32:36;1.10;100.00
85333;DHT22;75747;53.652;10.168;2024-03-08T08:35:03;1.10;100.00
85333;DHT22;75747;53.652;10.168;2024-03-08T08:37:32;1.30;100.00
85333;DHT22;75747;53.652;10.168;2024-03-08T08:39:59;1.30;100.00
85333;DHT22;75747;53.652;10.168;2024-03-08T08:42:31;1.40;100.00
85333;DHT22;75747;53.652;10.168;2024-03-08T08:45:03;1.50;100.00
85333;DHT22;75747;53.652;10.168;2024-03-08T08:47:34;1.60;100.00
85333;DHT22;75747;53.652;10.168;2024-03-08T08:49:59;1.80;100.00
85333;DHT22;75747;53.652;10.168;2024-03-08T08:52:26;1.90;100.00
85333;DHT22;75747;53.652;10.168;2024-03-08T08:54:51;2.10;100.00
85333;DHT22;75747;53.652;10.168;2024-03-08T08:57:17;2.30;100.00
85333;DHT22;75747;53.652;10.168;2024-03-08T08:59:43;2.50;100.00
85333;DHT22;75747;53.652;10.168;2024-03-08T09:02:08;2.50;100.00
85333;DHT22;75747;53.652;10.168;2024-03-08T09:04:34;2.60;100.00
85333;DHT22;75747;53.652;10.168;2024-03-08T09:07:01;2.70;100.00
85333;DHT22;75747;53.652;10.168;2024-03-08T09:09:27;2.80;100.00
85333;DHT22;75747;53.652;10.168;2024-03-08T09:11:52;2.80;100.00
85333;DHT22;75747;53.652;10.168;2024-03-08T09:14:19;3.00;100.00
85333;DHT22;75747;53.652;10.168;2024-03-08T09:16:46;3.10;100.00
85333;DHT22;75747;53.652;10.168;2024-03-08T09:19:13;3.30;100.00
85333;DHT22;75747;53.652;10.168;2024-03-08T09:21:38;3.40;99.50
85333;DHT22;75747;53.652;10.168;2024-03-08T09:24:05;3.60;98.10
85333;DHT22;75747;53.652;10.168;2024-03-08T09:26:32;3.70;99.20
85333;DHT22;75747;53.652;10.168;2024-03-08T09:28:59;3.90;97.80
85333;DHT22;75747;53.652;10.168;2024-03-08T09:31:25;4.00;95.10
85333;DHT22;75747;53.652;10.168;2024-03-08T09:33:51;4.00;93.00
85333;DHT22;75747;53.652;10.168;2024-03-08T09:36:17;4.10;93.50
85333;DHT22;75747;53.652;10.168;2024-03-08T09:38:43;4.20;93.50
85333;DHT22;75747;53.652;10.168;2024-03-08T09:41:09;4.30;93.20
85333;DHT22;75747;53.652;10.168;2024-03-08T09:43:36;4.30;91.70
85333;DHT22;75747;53.652;10.168;2024-03-08T09:46:03;4.40;91.00
85333;DHT22;75747;53.652;10.168;2024-03-08T09:48:31;4.40;89.70
85333;DHT22;75747;53.652;10.168;2024-03-08T09:50:57;4.30;89.30
85333;DHT22;75747;53.652;10.168;2024-03-08T09:53:22;4.30;89.00
85333;DHT22;75747;53.652;10.168;2024-03-08T09:55:48;4.40;89.40
85333;DHT22;75747;53.652;10.168;2024-03-08T09:58:15;4.40;88.90
85333;DHT22;75747;53.652;10.168;2024-03-08T10:00:43;4.50;89.00
85333;DHT22;75747;53.652;10.168;2024-03-08T10:03:08;4.60;88.80
85333;DHT22;75747;53.652;10.168;2024-03-08T10:05:34;4.60;87.30
85333;DHT22;75747;53.652;10.168;2024-03-08T10:08:00;4.60;88.30
85333;DHT22;75747;53.652;10.168;2024-03-08T10:10:26;4.80;88.60
85333;DHT22;75747;53.652;10.168;2024-03-08T10:12:52;4.80;88.50
85333;DHT22;75747;53.652;10.168;2024-03-08T10:15:17;4.90;88.60
85333;DHT22;75747;53.652;10.168;2024-03-08T10:17:43;5.00;87.80
85333;DHT22;75747;53.652;10.168;2024-03-08T10:20:16;5.00;87.00
85333;DHT22;75747;53.652;10.168;2024-03-08T10:22:42;5.10;86.80
85333;DHT22;75747;53.652;10.168;2024-03-08T10:25:10;5.10;83.80
85333;DHT22;75747;53.652;10.168;2024-03-08T10:27:36;5.20;82.90
85333;DHT22;75747;53.652;10.168;2024-03-08T10:30:04;5.20;82.50
85333;DHT22;75747;53.652;10.168;2024-03-08T10:32:31;5.30;82.30
85333;DHT22;75747;53.652;10.168;2024-03-08T10:34:57;5.30;81.00
85333;DHT22;75747;53.652;10.168;2024-03-08T10:37:22;5.30;81.40
85333;DHT22;75747;53.652;10.168;2024-03-08T10:40:02;5.40;80.40
85333;DHT22;75747;53.652;10.168;2024-03-08T10:43:00;5.40;78.60
85333;DHT22;75747;53.652;10.168;2024-03-08T10:45:38;5.50;77.90
85333;DHT22;75747;53.652;10.168;2024-03-08T10:48:28;5.50;78.00
85333;DHT22;75747;53.652;10.168;2024-03-08T10:50:59;5.50;78.20
85333;DHT22;75747;53.652;10.168;2024-03-08T10:53:27;5.60;78.30
85333;DHT22;75747;53.652;10.168;2024-03-08T10:55:56;5.70;78.10
85333;DHT22;75747;53.652;10.168;2024-03-08T10:58:24;5.80;76.70
85333;DHT22;75747;53.652;10.168;2024-03-08T11:00:52;5.70;75.80
85333;DHT22;75747;53.652;10.168;2024-03-08T11:06:30;5.80;76.60
85333;DHT22;75747;53.652;10.168;2024-03-08T11:09:31;5.90;76.50
85333;DHT22;75747;53.652;10.168;2024-03-08T11:14:49;5.90;75.20
85333;DHT22;75747;53.652;10.168;2024-03-08T11:17:16;5.90;75.30
85333;DHT22;75747;53.652;10.168;2024-03-08T11:19:46;6.00;76.10
85333;DHT22;75747;53.652;10.168;2024-03-08T11:22:27;6.00;74.60
85333;DHT22;75747;53.652;10.168;2024-03-08T11:24:53;6.10;74.20
85333;DHT22;75747;53.652;10.168;2024-03-08T11:27:31;6.10;73.70
85333;DHT22;75747;53.652;10.168;2024-03-08T11:30:03;6.20;74.60
85333;DHT22;75747;53.652;10.168;2024-03-08T11:32:37;6.30;74.10
85333;DHT22;75747;53.652;10.168;2024-03-08T11:35:06;6.30;74.30
85333;DHT22;75747;53.652;10.168;2024-03-08T11:37:34;6.40;73.20
85333;DHT22;75747;53.652;10.168;2024-03-08T11:40:01;6.40;71.00
85333;DHT22;75747;53.652;10.168;2024-03-08T11:42:30;6.50;71.50
85333;DHT22;75747;53.652;10.168;2024-03-08T11:44:56;6.50;69.80
85333;DHT22;75747;53.652;10.168;2024-03-08T11:47:22;6.60;70.20
85333;DHT22;75747;53.652;10.168;2024-03-08T11:49:48;6.60;68.70
85333;DHT22;75747;53.652;10.168;2024-03-08T11:52:18;6.60;69.50
85333;DHT22;75747;53.652;10.168;2024-03-08T11:54:53;6.70;69.90
85333;DHT22;75747;53.652;10.168;2024-03-08T11:57:23;6.80;69.50
85333;DHT22;75747;53.652;10.168;2024-03-08T11:59:53;6.90;69.30
85333;DHT22;75747;53.652;10.168;2024-03-08T12:02:19;6.90;67.20
85333;DHT22;75747;53.652;10.168;2024-03-08T12:04:45;6.80;66.80
85333;DHT22;75747;53.652;10.168;2024-03-08T12:07:14;6.70;68.00
85333;DHT22;75747;53.652;10.168;2024-03-08T12:09:44;6.70;67.60
85333;DHT22;75747;53.652;10.168;2024-03-08T12:12:29;6.70;67.90
85333;DHT22;75747;53.652;10.168;2024-03-08T12:14:55;6.80;68.00
85333;DHT22;75747;53.652;10.168;2024-03-08T12:17:23;6.80;68.60
85333;DHT22;75747;53.652;10.168;2024-03-08T12:19:49;6.80;67.90
85333;DHT22;75747;53.652;10.168;2024-03-08T12:22:15;6.80;68.30
85333;DHT22;75747;53.652;10.168;2024-03-08T12:24:40;6.90;67.50
85333;DHT22;75747;53.652;10.168;2024-03-08T12:27:20;6.90;66.40
85333;DHT22;75747;53.652;10.168;2024-03-08T12:29:45;6.90;66.70
85333;DHT22;75747;53.652;10.168;2024-03-08T12:32:12;6.90;64.90
85333;DHT22;75747;53.652;10.168;2024-03-08T12:34:37;6.90;64.60
85333;DHT22;75747;53.652;10.168;2024-03-08T12:37:03;6.90;65.30
85333;DHT22;75747;53.652;10.168;2024-03-08T12:39:32;6.90;66.30
85333;DHT22;75747;53.652;10.168;2024-03-08T12:41:58;7.00;67.50
85333;DHT22;75747;53.652;10.168;2024-03-08T12:44:24;7.00;67.20
85333;DHT22;75747;53.652;10.168;2024-03-08T12:46:51;7.00;66.90
85333;DHT22;75747;53.652;10.168;2024-03-08T12:49:19;7.10;66.50
85333;DHT22;75747;53.652;10.168;2024-03-08T12:51:47;7.20;66.20
85333;DHT22;75747;53.652;10.168;2024-03-08T12:54:13;7.20;66.30
85333;DHT22;75747;53.652;10.168;2024-03-08T12:56:39;7.20;66.20
85333;DHT22;75747;53.652;10.168;2024-03-08T12:59:06;7.20;66.10
85333;DHT22;75747;53.652;10.168;2024-03-08T13:01:34;7.20;66.00
85333;DHT22;75747;53.652;10.168;2024-03-08T13:04:02;7.20;66.20
85333;DHT22;75747;53.652;10.168;2024-03-08T13:06:29;7.20;66.10
85333;DHT22;75747;53.652;10.168;2024-03-08T13:08:56;7.20;66.70
85333;DHT22;75747;53.652;10.168;2024-03-08T13:11:23;7.30;65.60
85333;DHT22;75747;53.652;10.168;2024-03-08T13:13:49;7.30;64.80
85333;DHT22;75747;53.652;10.168;2024-03-08T13:16:15;7.40;63.90
85333;DHT22;75747;53.652;10.168;2024-03-08T13:18:41;7.30;63.30
85333;DHT22;75747;53.652;10.168;2024-03-08T13:21:10;7.40;62.70
85333;DHT22;75747;53.652;10.168;2024-03-08T13:23:38;7.30;62.60
85333;DHT22;75747;53.652;10.168;2024-03-08T13:26:11;7.40;61.70
85333;DHT22;75747;53.652;10.168;2024-03-08T13:28:50;7.50;62.10
85333;DHT22;75747;53.652;10.168;2024-03-08T13:31:20;7.50;62.30
85333;DHT22;75747;53.652;10.168;2024-03-08T13:33:45;7.50;61.70
85333;DHT22;75747;53.652;10.168;2024-03-08T13:36:15;7.50;61.30
85333;DHT22;75747;53.652;10.168;2024-03-08T13:38:45;7.50;61.80
85333;DHT22;75747;53.652;10.168;2024-03-08T13:41:12;7.50;62.60
85333;DHT22;75747;53.652;10.168;2024-03-08T13:43:40;7.60;63.80
85333;DHT22;75747;53.652;10.168;2024-03-08T13:46:06;7.60;62.50
85333;DHT22;75747;53.652;10.168;2024-03-08T13:48:33;7.70;62.90
85333;DHT22;75747;53.652;10.168;2024-03-08T13:50:58;7.70;62.50
85333;DHT22;75747;53.652;10.168;2024-03-08T13:53:25;7.70;62.00
85333;DHT22;75747;53.652;10.168;2024-03-08T13:55:51;7.70;62.60
85333;DHT22;75747;53.652;10.168;2024-03-08T13:58:17;7.70;62.60
85333;DHT22;75747;53.652;10.168;2024-03-08T14:00:42;7.70;62.30
85333;DHT22;75747;53.652;10.168;2024-03-08T14:03:11;7.70;62.50
85333;DHT22;75747;53.652;10.168;2024-03-08T14:05:41;7.70;63.30
85333;DHT22;75747;53.652;10.168;2024-03-08T14:08:08;7.70;63.00
85333;DHT22;75747;53.652;10.168;2024-03-08T14:10:34;7.60;63.40
85333;DHT22;75747;53.652;10.168;2024-03-08T14:13:02;7.60;64.10
85333;DHT22;75747;53.652;10.168;2024-03-08T14:15:33;7.70;63.20
85333;DHT22;75747;53.652;10.168;2024-03-08T14:18:00;7.70;62.60
85333;DHT22;75747;53.652;10.168;2024-03-08T14:20:26;7.80;62.70
85333;DHT22;75747;53.652;10.168;2024-03-08T14:22:55;7.80;63.50
85333;DHT22;75747;53.652;10.168;2024-03-08T14:25:21;7.80;62.90
85333;DHT22;75747;53.652;10.168;2024-03-08T14:27:49;7.80;62.00
85333;DHT22;75747;53.652;10.168;2024-03-08T14:30:15;7.80;61.50
85333;DHT22;75747;53.652;10.168;2024-03-08T14:32:58;7.80;61.50
85333;DHT22;75747;53.652;10.168;2024-03-08T14:35:24;7.90;61.80
85333;DHT22;75747;53.652;10.168;2024-03-08T14:37:50;7.80;61.80
85333;DHT22;75747;53.652;10.168;2024-03-08T14:40:17;7.80;60.80
85333;DHT22;75747;53.652;10.168;2024-03-08T14:42:48;7.80;60.50
85333;DHT22;75747;53.652;10.168;2024-03-08T14:45:15;7.80;61.30
85333;DHT22;75747;53.652;10.168;2024-03-08T14:47:41;7.90;61.40
85333;DHT22;75747;53.652;10.168;2024-03-08T14:50:08;7.90;61.60
85333;DHT22;75747;53.652;10.168;2024-03-08T14:52:35;7.90;60.50
85333;DHT22;75747;53.652;10.168;2024-03-08T14:55:01;7.90;61.40
85333;DHT22;75747;53.652;10.168;2024-03-08T14:57:31;7.90;60.70
85333;DHT22;75747;53.652;10.168;2024-03-08T14:59:58;7.90;59.80
85333;DHT22;75747;53.652;10.168;2024-03-08T15:02:31;8.00;59.70
85333;DHT22;75747;53.652;10.168;2024-03-08T15:04:57;7.90;60.70
85333;DHT22;75747;53.652;10.168;2024-03-08T15:07:24;7.90;60.70
85333;DHT22;75747;53.652;10.168;2024-03-08T15:09:51;7.90;60.90
85333;DHT22;75747;53.652;10.168;2024-03-08T15:12:16;7.90;60.80
85333;DHT22;75747;53.652;10.168;2024-03-08T15:14:42;7.90;61.00
85333;DHT22;75747;53.652;10.168;2024-03-08T15:17:10;7.90;61.10
85333;DHT22;75747;53.652;10.168;2024-03-08T15:19:43;7.90;60.80
85333;DHT22;75747;53.652;10.168;2024-03-08T15:22:10;7.90;61.50
85333;DHT22;75747;53.652;10.168;2024-03-08T15:24:37;7.80;60.80